Time;durP1;ratioP1;P1;durP2;ratioP2;P2;SDS_P1;SDS_P2;PMS_P1;PMS_P2;Temp;Humidity;BMP_temperature;BMP_pressure;BME280_temperature;BME280_humidity;BME280_pressure;Samples;Min_cycle;Max_cycle;Signal;HPM_P1;HPM_P2
2021/08/16 00:01:50;;;;;;;0.00;0.00;;;;;;;;;;5119285;28;20266;-72
2021/08/16 00:04:16;;;;;;;0.00;0.00;;;;;;;;;;5124084;28;20205;-71
2021/08/16 00:06:43;;;;;;;0.00;0.00;;;;;;;;;;5125379;28;20332;-72
2021/08/16 00:09:09;;;;;;;0.00;0.00;;;;;;;;;;5125497;28;20198;-72
2021/08/16 00:11:35;;;;;;;0.00;0.00;;;;;;;;;;5108732;28;20544;-73
2021/08/16 00:14:02;;;;;;;0.00;0.00;;;;;;;;;;5112684;28;20201;-73
2021/08/16 00:16:30;;;;;;;0.00;0.00;;;;;;;;;;5114702;28;20279;-71
2021/08/16 00:18:56;;;;;;;0.00;0.00;;;;;;;;;;5121645;28;20266;-71
2021/08/16 00:21:23;;;;;;;0.00;0.00;;;;;;;;;;5115627;28;20206;-71
2021/08/16 00:23:49;;;;;;;0.00;0.00;;;;;;;;;;5119751;28;20201;-70
2021/08/16 00:26:16;;;;;;;0.00;0.00;;;;;;;;;;5124830;28;20214;-72
2021/08/16 00:28:42;;;;;;;0.00;0.00;;;;;;;;;;5124653;28;20202;-71
2021/08/16 00:31:08;;;;;;;0.00;0.00;;;;;;;;;;5124470;28;20206;-71
2021/08/16 00:33:36;;;;;;;0.00;0.00;;;;;;;;;;5124789;28;20213;-71
2021/08/16 00:36:03;;;;;;;0.00;0.00;;;;;;;;;;5124274;28;20216;-71
2021/08/16 00:38:29;;;;;;;0.00;0.00;;;;;;;;;;5114575;28;20284;-71
2021/08/16 00:40:56;;;;;;;0.00;0.00;;;;;;;;;;5105930;28;20229;-70
2021/08/16 00:43:22;;;;;;;0.08;0.08;;;;;;;;;;5124466;28;20224;-71
2021/08/16 00:45:49;;;;;;;0.00;0.00;;;;;;;;;;5120683;28;20201;-70
2021/08/16 00:48:15;;;;;;;0.00;0.00;;;;;;;;;;5117107;28;20255;-70
2021/08/16 00:50:42;;;;;;;0.00;0.00;;;;;;;;;;5124502;28;20415;-71
2021/08/16 00:53:09;;;;;;;0.00;0.00;;;;;;;;;;5123411;28;20210;-71
2021/08/16 00:55:35;;;;;;;0.00;0.00;;;;;;;;;;5110450;28;20345;-71
2021/08/16 00:58:02;;;;;;;0.00;0.00;;;;;;;;;;5124204;28;20214;-71
2021/08/16 01:00:28;;;;;;;0.00;0.00;;;;;;;;;;5119069;28;20222;-70
2021/08/16 01:02:54;;;;;;;0.00;0.00;;;;;;;;;;5115359;28;20247;-69
2021/08/16 01:05:20;;;;;;;0.00;0.00;;;;;;;;;;5124433;28;20236;-69
2021/08/16 01:07:48;;;;;;;0.10;0.10;;;;;;;;;;5124019;28;20206;-70
2021/08/16 01:10:15;;;;;;;0.05;0.05;;;;;;;;;;5109845;28;20203;-70
2021/08/16 01:12:42;;;;;;;0.10;0.10;;;;;;;;;;5124302;28;20213;-70
2021/08/16 01:15:09;;;;;;;0.00;0.00;;;;;;;;;;5110637;28;20215;-70
2021/08/16 01:17:36;;;;;;;0.00;0.00;;;;;;;;;;5117932;28;20528;-70
2021/08/16 01:20:03;;;;;;;0.10;0.10;;;;;;;;;;5115418;28;20265;-70
2021/08/16 01:22:29;;;;;;;0.00;0.00;;;;;;;;;;5109961;28;20497;-70
2021/08/16 01:24:56;;;;;;;0.00;0.00;;;;;;;;;;5123866;28;20546;-69
2021/08/16 01:27:24;;;;;;;0.00;0.00;;;;;;;;;;5107792;28;20262;-69
2021/08/16 01:29:50;;;;;;;0.00;0.00;;;;;;;;;;5112044;28;20197;-70
2021/08/16 01:32:16;;;;;;;0.00;0.00;;;;;;;;;;5123844;28;20386;-70
2021/08/16 01:34:43;;;;;;;0.00;0.00;;;;;;;;;;5109806;28;20347;-70
2021/08/16 01:37:09;;;;;;;0.10;0.10;;;;;;;;;;5123329;28;20202;-72
2021/08/16 01:39:35;;;;;;;0.00;0.00;;;;;;;;;;5124406;28;20218;-71
2021/08/16 01:42:01;;;;;;;0.10;0.10;;;;;;;;;;5119917;28;20206;-71
2021/08/16 01:44:29;;;;;;;0.00;0.00;;;;;;;;;;5117851;28;20209;-70
2021/08/16 01:46:55;;;;;;;0.00;0.00;;;;;;;;;;5103741;28;20330;-71
2021/08/16 01:49:21;;;;;;;0.00;0.00;;;;;;;;;;5118495;28;20201;-70
2021/08/16 01:51:48;;;;;;;0.00;0.00;;;;;;;;;;5124095;28;20243;-70
2021/08/16 01:54:15;;;;;;;0.08;0.08;;;;;;;;;;5122772;28;20205;-71
2021/08/16 01:56:41;;;;;;;0.00;0.00;;;;;;;;;;5124024;28;20296;-72
2021/08/16 01:59:08;;;;;;;0.00;0.00;;;;;;;;;;5123607;28;20250;-71
2021/08/16 02:01:35;;;;;;;0.00;0.00;;;;;;;;;;5123759;28;20212;-71
2021/08/16 02:04:01;;;;;;;0.00;0.00;;;;;;;;;;5123204;28;20217;-70
2021/08/16 02:06:28;;;;;;;0.00;0.00;;;;;;;;;;5123469;28;20262;-70
2021/08/16 02:08:55;;;;;;;0.10;0.10;;;;;;;;;;5124523;28;20342;-70
2021/08/16 02:11:21;;;;;;;0.00;0.00;;;;;;;;;;5114513;28;20246;-70
2021/08/16 02:13:47;;;;;;;0.00;0.00;;;;;;;;;;5112131;28;20200;-71
2021/08/16 02:16:14;;;;;;;0.10;0.10;;;;;;;;;;5127629;28;20205;-72
2021/08/16 02:18:41;;;;;;;0.00;0.00;;;;;;;;;;5127523;28;20222;-71
2021/08/16 02:21:08;;;;;;;0.00;0.00;;;;;;;;;;5127156;28;20232;-70
2021/08/16 02:23:34;;;;;;;0.05;0.05;;;;;;;;;;5127106;28;20320;-71
2021/08/16 02:26:00;;;;;;;0.10;0.10;;;;;;;;;;5127072;28;20208;-70
2021/08/16 02:28:27;;;;;;;0.00;0.00;;;;;;;;;;5128017;27;20258;-71
2021/08/16 02:30:53;;;;;;;4.47;4.22;;;;;;;;;;5121823;27;20205;-70
2021/08/16 02:33:19;;;;;;;0.00;0.00;;;;;;;;;;5118952;28;20488;-71
2021/08/16 02:35:47;;;;;;;0.00;0.00;;;;;;;;;;5123503;27;20269;-71
2021/08/16 02:38:13;;;;;;;0.00;0.00;;;;;;;;;;5117192;28;20477;-71
2021/08/16 02:40:40;;;;;;;0.00;0.00;;;;;;;;;;5127205;28;20220;-70
2021/08/16 02:43:06;;;;;;;0.00;0.00;;;;;;;;;;5126694;28;20215;-71
2021/08/16 02:45:33;;;;;;;0.00;0.00;;;;;;;;;;5127049;28;20247;-70
2021/08/16 02:47:59;;;;;;;0.03;0.03;;;;;;;;;;5126690;28;20197;-70
2021/08/16 02:50:25;;;;;;;0.03;0.03;;;;;;;;;;5126801;28;20202;-70
2021/08/16 02:52:53;;;;;;;0.00;0.00;;;;;;;;;;5126931;28;20225;-71
2021/08/16 02:55:19;;;;;;;0.00;0.00;;;;;;;;;;5126844;28;20254;-70
2021/08/16 02:57:45;;;;;;;0.00;0.00;;;;;;;;;;5126423;28;20213;-71
2021/08/16 03:00:14;;;;;;;0.00;0.00;;;;;;;;;;5126100;28;20221;-71
2021/08/16 03:02:42;;;;;;;0.00;0.00;;;;;;;;;;5126530;28;20208;-70
2021/08/16 03:05:08;;;;;;;0.10;0.10;;;;;;;;;;5126295;28;20414;-71
2021/08/16 03:07:35;;;;;;;0.00;0.00;;;;;;;;;;5126269;28;20258;-70
2021/08/16 03:10:04;;;;;;;0.00;0.00;;;;;;;;;;5126224;27;20219;-70
2021/08/16 03:12:30;;;;;;;0.08;0.08;;;;;;;;;;5126104;28;20208;-71
2021/08/16 03:14:56;;;;;;;0.10;0.10;;;;;;;;;;5125848;27;20247;-70
2021/08/16 03:17:22;;;;;;;0.10;0.10;;;;;;;;;;5125818;28;20201;-71
2021/08/16 03:19:49;;;;;;;0.10;0.10;;;;;;;;;;5113124;28;20205;-71
2021/08/16 03:22:15;;;;;;;0.00;0.00;;;;;;;;;;5124550;28;20201;-71
2021/08/16 03:24:41;;;;;;;0.00;0.00;;;;;;;;;;5126321;28;20393;-70
2021/08/16 03:27:09;;;;;;;0.00;0.00;;;;;;;;;;5126259;28;20247;-71
2021/08/16 03:29:35;;;;;;;0.08;0.08;;;;;;;;;;5126254;28;20214;-71
2021/08/16 03:32:01;;;;;;;0.00;0.00;;;;;;;;;;5126013;28;20412;-72
2021/08/16 03:34:28;;;;;;;0.00;0.00;;;;;;;;;;5126070;28;20513;-71
2021/08/16 03:36:54;;;;;;;0.05;0.05;;;;;;;;;;5125805;28;20271;-70
2021/08/16 03:39:21;;;;;;;0.10;0.10;;;;;;;;;;5125676;28;20224;-71
2021/08/16 03:41:47;;;;;;;0.00;0.00;;;;;;;;;;5125537;28;20225;-71
2021/08/16 03:44:14;;;;;;;0.00;0.00;;;;;;;;;;5125899;28;20269;-71
2021/08/16 03:46:41;;;;;;;0.00;0.00;;;;;;;;;;5116345;28;20216;-71
2021/08/16 03:49:07;;;;;;;0.00;0.00;;;;;;;;;;5121092;28;20204;-70
2021/08/16 03:51:33;;;;;;;0.00;0.00;;;;;;;;;;5117941;28;20243;-70
2021/08/16 03:53:59;;;;;;;0.10;0.10;;;;;;;;;;5118898;28;20373;-71
2021/08/16 03:56:26;;;;;;;0.00;0.00;;;;;;;;;;5125984;28;20240;-71
2021/08/16 03:58:52;;;;;;;0.00;0.00;;;;;;;;;;5125350;28;20202;-71
2021/08/16 04:01:20;;;;;;;0.10;0.10;;;;;;;;;;5124586;28;20495;-71
2021/08/16 04:03:47;;;;;;;0.08;0.08;;;;;;;;;;5125616;28;20208;-71
2021/08/16 04:06:13;;;;;;;0.00;0.00;;;;;;;;;;5124722;28;20213;-70
2021/08/16 04:08:40;;;;;;;0.00;0.00;;;;;;;;;;5125628;28;20202;-70
2021/08/16 04:11:06;;;;;;;0.00;0.00;;;;;;;;;;5125451;28;20506;-70
2021/08/16 04:13:32;;;;;;;0.00;0.00;;;;;;;;;;5125140;28;20272;-71
2021/08/16 04:15:59;;;;;;;0.10;0.10;;;;;;;;;;5125558;28;20257;-71
2021/08/16 04:18:26;;;;;;;0.10;0.10;;;;;;;;;;5124076;28;20328;-73
2021/08/16 04:20:53;;;;;;;0.82;0.77;;;;;;;;;;5111819;28;20517;-72
2021/08/16 04:23:19;;;;;;;0.10;0.10;;;;;;;;;;5124930;28;20422;-72
2021/08/16 04:25:45;;;;;;;0.00;0.00;;;;;;;;;;5119121;28;20232;-72
2021/08/16 04:28:12;;;;;;;0.00;0.00;;;;;;;;;;5104524;28;20209;-72
2021/08/16 04:30:39;;;;;;;0.05;0.05;;;;;;;;;;5122306;28;20200;-72
2021/08/16 04:33:05;;;;;;;0.10;0.10;;;;;;;;;;5114290;28;20205;-73
2021/08/16 04:35:32;;;;;;;0.10;0.10;;;;;;;;;;5105892;28;20204;-71
2021/08/16 04:37:59;;;;;;;0.00;0.00;;;;;;;;;;5124860;28;20216;-73
2021/08/16 04:40:25;;;;;;;0.10;0.10;;;;;;;;;;5110683;28;20233;-72
2021/08/16 04:42:51;;;;;;;0.00;0.00;;;;;;;;;;5110439;28;20209;-72
2021/08/16 04:45:17;;;;;;;0.00;0.00;;;;;;;;;;5112015;28;20264;-72
2021/08/16 04:47:45;;;;;;;0.00;0.00;;;;;;;;;;5107715;28;20201;-72
2021/08/16 04:50:12;;;;;;;0.10;0.10;;;;;;;;;;5124577;28;20203;-71
2021/08/16 04:52:39;;;;;;;0.00;0.00;;;;;;;;;;5110384;28;20478;-72
2021/08/16 04:55:06;;;;;;;0.00;0.00;;;;;;;;;;5104892;28;20282;-72
2021/08/16 04:57:33;;;;;;;0.00;0.00;;;;;;;;;;5104566;28;20213;-71
2021/08/16 05:00:00;;;;;;;0.10;0.10;;;;;;;;;;5121082;28;20398;-72
2021/08/16 05:02:26;;;;;;;0.00;0.00;;;;;;;;;;5124129;28;20516;-73
2021/08/16 05:04:55;;;;;;;0.00;0.00;;;;;;;;;;5124019;28;20258;-71
2021/08/16 05:07:22;;;;;;;0.00;0.00;;;;;;;;;;5123744;28;20350;-72
2021/08/16 05:09:49;;;;;;;0.00;0.00;;;;;;;;;;5123723;28;20238;-71
2021/08/16 05:12:16;;;;;;;0.10;0.10;;;;;;;;;;5123742;28;20225;-71
2021/08/16 05:14:42;;;;;;;0.00;0.00;;;;;;;;;;5124220;28;20272;-71
2021/08/16 05:17:08;;;;;;;0.00;0.00;;;;;;;;;;5123719;28;20238;-71
2021/08/16 05:19:37;;;;;;;0.00;0.00;;;;;;;;;;5113245;28;20225;-71
2021/08/16 05:22:05;;;;;;;0.00;0.00;;;;;;;;;;5117261;28;20221;-72
2021/08/16 05:24:31;;;;;;;0.00;0.00;;;;;;;;;;5112538;28;20274;-71
2021/08/16 05:26:59;;;;;;;0.00;0.00;;;;;;;;;;5109843;28;20210;-71
2021/08/16 05:29:25;;;;;;;0.00;0.00;;;;;;;;;;5123924;28;20423;-71
2021/08/16 05:31:51;;;;;;;0.00;0.00;;;;;;;;;;5123804;28;20201;-71
2021/08/16 05:34:17;;;;;;;0.00;0.00;;;;;;;;;;5109602;28;20212;-71
2021/08/16 05:36:43;;;;;;;0.10;0.10;;;;;;;;;;5123716;28;20202;-71
2021/08/16 05:39:10;;;;;;;0.00;0.00;;;;;;;;;;5123935;28;20250;-72
2021/08/16 05:41:36;;;;;;;0.00;0.00;;;;;;;;;;5113880;28;20277;-71
2021/08/16 05:44:04;;;;;;;0.00;0.00;;;;;;;;;;5120463;28;20496;-71
2021/08/16 05:46:30;;;;;;;0.00;0.00;;;;;;;;;;5107306;28;20331;-72
2021/08/16 05:48:56;;;;;;;0.00;0.00;;;;;;;;;;5107464;28;20256;-70
2021/08/16 05:51:23;;;;;;;0.00;0.00;;;;;;;;;;5113517;28;20400;-71
2021/08/16 05:53:49;;;;;;;0.00;0.00;;;;;;;;;;5114962;28;20202;-71
2021/08/16 05:56:15;;;;;;;0.10;0.10;;;;;;;;;;5107397;28;20248;-70
2021/08/16 05:58:42;;;;;;;0.00;0.00;;;;;;;;;;5127453;28;20249;-71
2021/08/16 06:01:10;;;;;;;0.00;0.00;;;;;;;;;;5114908;28;20572;-72
2021/08/16 06:03:36;;;;;;;0.10;0.10;;;;;;;;;;5126760;28;20203;-71
2021/08/16 06:06:02;;;;;;;0.00;0.00;;;;;;;;;;5127199;28;20201;-70
2021/08/16 06:08:29;;;;;;;0.00;0.00;;;;;;;;;;5125390;28;20197;-72
2021/08/16 06:10:55;;;;;;;0.00;0.00;;;;;;;;;;5127598;27;20249;-71
2021/08/16 06:13:21;;;;;;;0.00;0.00;;;;;;;;;;5113403;28;20254;-71
2021/08/16 06:15:48;;;;;;;0.00;0.00;;;;;;;;;;5127274;28;20206;-70
2021/08/16 06:18:15;;;;;;;0.00;0.00;;;;;;;;;;5113738;28;20252;-71
2021/08/16 06:20:41;;;;;;;0.00;0.00;;;;;;;;;;5126808;28;20244;-71
2021/08/16 06:23:09;;;;;;;0.08;0.08;;;;;;;;;;5115523;28;20244;-71
2021/08/16 06:25:36;;;;;;;0.00;0.00;;;;;;;;;;5109866;28;20201;-71
2021/08/16 06:28:02;;;;;;;0.00;0.00;;;;;;;;;;5117064;28;20413;-71
2021/08/16 06:30:28;;;;;;;0.00;0.00;;;;;;;;;;5121274;28;20246;-71
2021/08/16 06:32:54;;;;;;;0.00;0.00;;;;;;;;;;5106965;28;20244;-72
2021/08/16 06:35:22;;;;;;;0.00;0.00;;;;;;;;;;5121460;28;20372;-71
2021/08/16 06:37:48;;;;;;;0.00;0.00;;;;;;;;;;5120611;28;20206;-71
2021/08/16 06:40:15;;;;;;;0.00;0.00;;;;;;;;;;5119381;28;20201;-71
2021/08/16 06:42:41;;;;;;;0.10;0.10;;;;;;;;;;5112555;28;20257;-71
2021/08/16 06:45:08;;;;;;;0.00;0.00;;;;;;;;;;5107007;28;20535;-70
2021/08/16 06:47:34;;;;;;;0.00;0.00;;;;;;;;;;5124801;28;20273;-71
2021/08/16 06:50:00;;;;;;;0.00;0.00;;;;;;;;;;5129297;28;20522;-70
2021/08/16 06:52:28;;;;;;;0.00;0.00;;;;;;;;;;5128387;28;20198;-69
2021/08/16 06:54:55;;;;;;;0.08;0.08;;;;;;;;;;5110026;28;20427;-71
2021/08/16 06:57:24;;;;;;;0.00;0.00;;;;;;;;;;5117199;28;20547;-71
2021/08/16 06:59:50;;;;;;;0.00;0.00;;;;;;;;;;5122224;28;20233;-71
2021/08/16 07:02:16;;;;;;;0.00;0.00;;;;;;;;;;5126530;28;20233;-71
2021/08/16 07:04:43;;;;;;;0.00;0.00;;;;;;;;;;5113224;27;20252;-70
2021/08/16 07:07:09;;;;;;;0.00;0.00;;;;;;;;;;5108063;28;20236;-72
2021/08/16 07:09:37;;;;;;;0.00;0.00;;;;;;;;;;5107256;28;20269;-70
2021/08/16 07:12:03;;;;;;;0.00;0.00;;;;;;;;;;5125117;28;20489;-72
2021/08/16 07:14:29;;;;;;;0.00;0.00;;;;;;;;;;5115393;28;20248;-74
2021/08/16 07:16:55;;;;;;;0.00;0.00;;;;;;;;;;5123259;28;20442;-72
2021/08/16 07:19:22;;;;;;;0.00;0.00;;;;;;;;;;5131467;28;20251;-72
2021/08/16 07:21:48;;;;;;;0.00;0.00;;;;;;;;;;5132059;28;20229;-73
2021/08/16 07:24:15;;;;;;;0.00;0.00;;;;;;;;;;5127081;28;20243;-74
2021/08/16 07:26:42;;;;;;;0.00;0.00;;;;;;;;;;5126594;28;20221;-74
2021/08/16 07:29:09;;;;;;;0.00;0.00;;;;;;;;;;5111438;28;20209;-73
2021/08/16 07:31:35;;;;;;;0.10;0.10;;;;;;;;;;5126604;28;20198;-73
2021/08/16 07:34:02;;;;;;;0.00;0.00;;;;;;;;;;5126001;28;20228;-73
2021/08/16 07:36:28;;;;;;;0.00;0.00;;;;;;;;;;5125915;28;20198;-74
2021/08/16 07:38:54;;;;;;;0.00;0.00;;;;;;;;;;5124451;28;20319;-73
2021/08/16 07:41:20;;;;;;;0.00;0.00;;;;;;;;;;5105325;28;20219;-73
2021/08/16 07:43:48;;;;;;;0.00;0.00;;;;;;;;;;5105272;28;20285;-73
2021/08/16 07:46:14;;;;;;;0.00;0.00;;;;;;;;;;5125590;28;20255;-73
2021/08/16 07:48:40;;;;;;;0.00;0.00;;;;;;;;;;5113178;28;20493;-73
2021/08/16 07:51:06;;;;;;;0.00;0.00;;;;;;;;;;5123401;28;20198;-73
2021/08/16 07:53:32;;;;;;;0.00;0.00;;;;;;;;;;5121270;28;20423;-73
2021/08/16 07:55:59;;;;;;;0.08;0.08;;;;;;;;;;5125147;28;20198;-73
2021/08/16 07:58:27;;;;;;;0.00;0.00;;;;;;;;;;5125064;28;20206;-72
2021/08/16 08:00:54;;;;;;;0.00;0.00;;;;;;;;;;5125085;28;20205;-73
2021/08/16 08:03:20;;;;;;;0.00;0.00;;;;;;;;;;5110398;28;20238;-73
2021/08/16 08:05:47;;;;;;;0.00;0.00;;;;;;;;;;5125319;28;20504;-73
2021/08/16 08:08:13;;;;;;;0.00;0.00;;;;;;;;;;5124767;28;20202;-73
2021/08/16 08:10:39;;;;;;;0.00;0.00;;;;;;;;;;5125401;28;20247;-73
2021/08/16 08:13:05;;;;;;;0.00;0.00;;;;;;;;;;5111788;28;20240;-73
2021/08/16 08:15:31;;;;;;;0.00;0.00;;;;;;;;;;5123798;28;20210;-73
2021/08/16 08:17:59;;;;;;;0.00;0.00;;;;;;;;;;5113718;28;20230;-74
2021/08/16 08:20:25;;;;;;;0.00;0.00;;;;;;;;;;5118842;28;20367;-73
2021/08/16 08:22:51;;;;;;;0.00;0.00;;;;;;;;;;5114219;28;20233;-73
2021/08/16 08:25:18;;;;;;;0.00;0.00;;;;;;;;;;5124229;28;20206;-72
2021/08/16 08:27:44;;;;;;;0.00;0.00;;;;;;;;;;5125064;28;20243;-73
2021/08/16 08:30:11;;;;;;;0.00;0.00;;;;;;;;;;5125317;28;20202;-74
2021/08/16 08:32:44;;;;;;;0.00;0.00;;;;;;;;;;5118356;28;20231;-74
2021/08/16 08:35:12;;;;;;;0.00;0.00;;;;;;;;;;5104606;28;20241;-74
2021/08/16 08:37:38;;;;;;;0.00;0.00;;;;;;;;;;5123403;28;20202;-73
2021/08/16 08:40:05;;;;;;;0.10;0.10;;;;;;;;;;5124487;28;20465;-73
2021/08/16 08:42:32;;;;;;;0.00;0.00;;;;;;;;;;5106480;28;20222;-74
2021/08/16 08:44:58;;;;;;;0.00;0.00;;;;;;;;;;5103916;28;20199;-73
2021/08/16 08:47:25;;;;;;;0.00;0.00;;;;;;;;;;5119734;28;20205;-73
2021/08/16 08:49:51;;;;;;;0.00;0.00;;;;;;;;;;5116147;28;20211;-73
2021/08/16 08:52:18;;;;;;;0.00;0.00;;;;;;;;;;5117572;28;20213;-73
2021/08/16 08:54:44;;;;;;;0.00;0.00;;;;;;;;;;5124352;28;20497;-72
2021/08/16 08:57:17;;;;;;;0.00;0.00;;;;;;;;;;5124541;28;20201;-72
2021/08/16 08:59:44;;;;;;;0.00;0.00;;;;;;;;;;5124276;28;20222;-72
2021/08/16 09:02:12;;;;;;;0.00;0.00;;;;;;;;;;5124255;28;20289;-73
2021/08/16 09:04:49;;;;;;;0.00;0.00;;;;;;;;;;5124403;28;20392;-74
2021/08/16 09:07:15;;;;;;;0.00;0.00;;;;;;;;;;5124277;28;20210;-73
2021/08/16 09:09:51;;;;;;;25.40;21.20;;;;;;;;;;5124432;28;20202;-73
2021/08/16 09:12:27;;;;;;;0.00;0.00;;;;;;;;;;5110036;28;20251;-73
2021/08/16 09:14:54;;;;;;;0.00;0.00;;;;;;;;;;5118132;28;20404;-73
2021/08/16 09:17:26;;;;;;;0.00;0.00;;;;;;;;;;5123763;28;20208;-72
2021/08/16 09:19:53;;;;;;;0.00;0.00;;;;;;;;;;5124623;28;20430;-73
2021/08/16 09:22:24;;;;;;;0.00;0.00;;;;;;;;;;5104429;28;20226;-69
2021/08/16 09:24:59;;;;;;;0.00;0.00;;;;;;;;;;5115262;28;20202;-67
2021/08/16 09:27:25;;;;;;;0.00;0.00;;;;;;;;;;5123514;28;20224;-67
2021/08/16 09:29:52;;;;;;;0.10;0.10;;;;;;;;;;5123810;28;20202;-68
2021/08/16 09:32:20;;;;;;;0.00;0.00;;;;;;;;;;5123866;28;20232;-67
2021/08/16 09:34:47;;;;;;;0.00;0.00;;;;;;;;;;5123516;28;20198;-66
2021/08/16 09:37:18;;;;;;;0.00;0.00;;;;;;;;;;5123592;28;20229;-67
2021/08/16 09:39:45;;;;;;;0.00;0.00;;;;;;;;;;5123534;28;20255;-69
2021/08/16 09:42:12;;;;;;;0.00;0.00;;;;;;;;;;5109504;28;20230;-68
2021/08/16 09:44:46;;;;;;;0.00;0.00;;;;;;;;;;5123855;28;20338;-68
2021/08/16 09:47:12;;;;;;;0.00;0.00;;;;;;;;;;5109596;28;20270;-67
2021/08/16 09:49:39;;;;;;;0.10;0.10;;;;;;;;;;5103506;28;20206;-67
2021/08/16 09:52:06;;;;;;;0.00;0.00;;;;;;;;;;5103118;28;20198;-69
2021/08/16 09:54:33;;;;;;;0.00;0.00;;;;;;;;;;5121530;28;20206;-68
2021/08/16 09:57:00;;;;;;;0.00;0.00;;;;;;;;;;5109774;28;20269;-67
2021/08/16 09:59:28;;;;;;;0.00;0.00;;;;;;;;;;5123148;28;20229;-67
2021/08/16 10:01:54;;;;;;;0.00;0.00;;;;;;;;;;5108934;28;20298;-67
2021/08/16 10:04:20;;;;;;;0.00;0.00;;;;;;;;;;5112857;28;20475;-68
2021/08/16 10:06:47;;;;;;;0.00;0.00;;;;;;;;;;5120179;28;20494;-68
2021/08/16 10:09:15;;;;;;;0.00;0.00;;;;;;;;;;5123855;28;20202;-66
2021/08/16 10:11:42;;;;;;;0.00;0.00;;;;;;;;;;5123462;28;20209;-69
2021/08/16 10:14:08;;;;;;;0.00;0.00;;;;;;;;;;5123351;28;20202;-66
2021/08/16 10:16:39;;;;;;;0.00;0.00;;;;;;;;;;5123560;28;20255;-67
2021/08/16 10:19:06;;;;;;;0.00;0.00;;;;;;;;;;5117483;28;20381;-66
2021/08/16 10:21:36;;;;;;;0.00;0.00;;;;;;;;;;5102699;28;20221;-66
2021/08/16 10:24:02;;;;;;;0.00;0.00;;;;;;;;;;5122413;28;20533;-66
2021/08/16 10:26:30;;;;;;;0.00;0.00;;;;;;;;;;5123349;28;20543;-67
2021/08/16 10:28:57;;;;;;;0.00;0.00;;;;;;;;;;5123203;28;20206;-67
2021/08/16 10:31:28;;;;;;;0.00;0.00;;;;;;;;;;5126432;28;20202;-69
2021/08/16 10:33:55;;;;;;;0.00;0.00;;;;;;;;;;5112687;27;20199;-67
2021/08/16 10:36:23;;;;;;;0.08;0.08;;;;;;;;;;5126829;28;20210;-67
2021/08/16 10:38:49;;;;;;;0.00;0.00;;;;;;;;;;5126806;28;20206;-67
2021/08/16 10:41:23;;;;;;;1.85;1.13;;;;;;;;;;5127182;28;20227;-67
2021/08/16 10:43:49;;;;;;;0.00;0.00;;;;;;;;;;5126843;28;20438;-66
2021/08/16 10:46:20;;;;;;;0.00;0.00;;;;;;;;;;5106204;28;20207;-67
2021/08/16 10:48:47;;;;;;;0.00;0.00;;;;;;;;;;5119244;28;20198;-67
2021/08/16 10:51:15;;;;;;;0.00;0.00;;;;;;;;;;5126755;28;20202;-67
2021/08/16 10:53:46;;;;;;;0.00;0.00;;;;;;;;;;5126300;28;20225;-67
2021/08/16 10:56:16;;;;;;;0.00;0.00;;;;;;;;;;5126447;28;20239;-67
2021/08/16 10:58:42;;;;;;;0.00;0.00;;;;;;;;;;5112588;28;20255;-67
2021/08/16 11:01:08;;;;;;;0.00;0.00;;;;;;;;;;5126630;28;20201;-67
2021/08/16 11:03:35;;;;;;;0.00;0.00;;;;;;;;;;5126010;28;20398;-67
2021/08/16 11:06:05;;;;;;;0.00;0.00;;;;;;;;;;5125863;28;20212;-66
2021/08/16 11:08:33;;;;;;;0.00;0.00;;;;;;;;;;5126070;28;20539;-68
2021/08/16 11:11:05;;;;;;;0.00;0.00;;;;;;;;;;5125934;27;20206;-67
2021/08/16 11:13:32;;;;;;;0.00;0.00;;;;;;;;;;5109380;27;20474;-67
2021/08/16 11:16:04;;;;;;;0.00;0.00;;;;;;;;;;5114785;28;20198;-67
2021/08/16 11:18:30;;;;;;;0.00;0.00;;;;;;;;;;5125793;28;20271;-67
2021/08/16 11:20:57;;;;;;;0.00;0.00;;;;;;;;;;5126116;28;20210;-67
2021/08/16 11:23:23;;;;;;;0.00;0.00;;;;;;;;;;5125800;28;20259;-67
2021/08/16 11:25:52;;;;;;;0.00;0.00;;;;;;;;;;5125817;27;20322;-68
2021/08/16 11:28:20;;;;;;;0.00;0.00;;;;;;;;;;5125984;27;20210;-67
2021/08/16 11:30:46;;;;;;;0.00;0.00;;;;;;;;;;5111170;28;20255;-68
2021/08/16 11:33:12;;;;;;;0.00;0.00;;;;;;;;;;5125946;28;20371;-67
2021/08/16 11:35:38;;;;;;;0.00;0.00;;;;;;;;;;5125666;28;20198;-67
2021/08/16 11:38:13;;;;;;;0.00;0.00;;;;;;;;;;5126023;28;20202;-66
2021/08/16 11:40:39;;;;;;;0.00;0.00;;;;;;;;;;5108921;28;20199;-67
2021/08/16 11:43:07;;;;;;;0.00;0.00;;;;;;;;;;5113244;28;20402;-67
2021/08/16 11:45:36;;;;;;;0.00;0.00;;;;;;;;;;5125224;28;20482;-67
2021/08/16 11:48:02;;;;;;;0.00;0.00;;;;;;;;;;5104963;28;20199;-66
2021/08/16 11:50:29;;;;;;;0.00;0.00;;;;;;;;;;5117794;28;20202;-66
2021/08/16 11:52:56;;;;;;;0.00;0.00;;;;;;;;;;5124710;28;20341;-67
2021/08/16 11:55:27;;;;;;;0.00;0.00;;;;;;;;;;5124797;28;20236;-66
2021/08/16 11:57:54;;;;;;;0.00;0.00;;;;;;;;;;5125138;28;20412;-67
2021/08/16 12:00:25;;;;;;;0.00;0.00;;;;;;;;;;5110795;28;20202;-66
2021/08/16 12:02:55;;;;;;;0.00;0.00;;;;;;;;;;5112507;28;20278;-66
2021/08/16 12:05:21;;;;;;;0.00;0.00;;;;;;;;;;5123875;28;20526;-67
2021/08/16 12:07:47;;;;;;;0.00;0.00;;;;;;;;;;5124948;28;20213;-67
2021/08/16 12:10:15;;;;;;;0.00;0.00;;;;;;;;;;5121311;28;20425;-68
2021/08/16 12:12:41;;;;;;;0.00;0.00;;;;;;;;;;5114538;28;20264;-68
2021/08/16 12:15:13;;;;;;;0.00;0.00;;;;;;;;;;5125071;28;20247;-68
2021/08/16 12:17:40;;;;;;;0.00;0.00;;;;;;;;;;5116627;28;20222;-67
2021/08/16 12:20:08;;;;;;;0.00;0.00;;;;;;;;;;5119509;28;20206;-68
2021/08/16 12:22:35;;;;;;;0.00;0.00;;;;;;;;;;5124722;28;20194;-67
2021/08/16 12:25:02;;;;;;;0.05;0.05;;;;;;;;;;5124646;28;20202;-67
2021/08/16 12:27:29;;;;;;;0.00;0.00;;;;;;;;;;5124291;28;20210;-67
2021/08/16 12:29:55;;;;;;;0.00;0.00;;;;;;;;;;5113257;28;20225;-67
2021/08/16 12:32:22;;;;;;;0.00;0.00;;;;;;;;;;5124068;28;20194;-68
2021/08/16 12:34:50;;;;;;;0.00;0.00;;;;;;;;;;5124240;28;20220;-67
2021/08/16 12:37:23;;;;;;;0.00;0.00;;;;;;;;;;5109786;28;20216;-67
2021/08/16 12:39:50;;;;;;;0.00;0.00;;;;;;;;;;5115248;28;20207;-67
2021/08/16 12:42:17;;;;;;;0.00;0.00;;;;;;;;;;5104875;28;20269;-67
2021/08/16 12:44:50;;;;;;;0.00;0.00;;;;;;;;;;5124080;28;20465;-69
2021/08/16 12:47:25;;;;;;;0.00;0.00;;;;;;;;;;5124526;28;20259;-67
2021/08/16 12:49:54;;;;;;;0.00;0.00;;;;;;;;;;5111282;28;20404;-67
2021/08/16 12:52:20;;;;;;;0.00;0.00;;;;;;;;;;5123918;28;20243;-66
2021/08/16 12:54:46;;;;;;;0.00;0.00;;;;;;;;;;5120401;28;20202;-66
2021/08/16 12:57:13;;;;;;;0.00;0.00;;;;;;;;;;5124386;28;20202;-66
2021/08/16 12:59:39;;;;;;;0.00;0.00;;;;;;;;;;5124002;28;20202;-67
2021/08/16 13:02:05;;;;;;;0.00;0.00;;;;;;;;;;5124095;28;20292;-67
2021/08/16 13:04:32;;;;;;;0.00;0.00;;;;;;;;;;5123983;28;20367;-67
2021/08/16 13:06:59;;;;;;;0.00;0.00;;;;;;;;;;5123640;28;20224;-67
2021/08/16 13:09:27;;;;;;;0.00;0.00;;;;;;;;;;5113550;28;20206;-67
2021/08/16 13:11:53;;;;;;;0.00;0.00;;;;;;;;;;5121413;28;20485;-66
2021/08/16 13:14:20;;;;;;;0.00;0.00;;;;;;;;;;5114991;28;20247;-67
2021/08/16 13:16:46;;;;;;;0.00;0.00;;;;;;;;;;5119404;28;20227;-67
2021/08/16 13:19:12;;;;;;;0.00;0.00;;;;;;;;;;5116566;28;20275;-67
2021/08/16 13:21:38;;;;;;;0.10;0.10;;;;;;;;;;5118731;28;20206;-67
2021/08/16 13:24:07;;;;;;;0.00;0.00;;;;;;;;;;5109669;28;20225;-67
2021/08/16 13:26:33;;;;;;;0.00;0.00;;;;;;;;;;5124130;28;20229;-67
2021/08/16 13:28:59;;;;;;;0.00;0.00;;;;;;;;;;5124022;28;20205;-68
2021/08/16 13:31:25;;;;;;;0.00;0.00;;;;;;;;;;5113388;28;20206;-68
2021/08/16 13:33:52;;;;;;;0.00;0.00;;;;;;;;;;5119610;28;20198;-68
2021/08/16 13:36:18;;;;;;;0.00;0.00;;;;;;;;;;5123778;28;20240;-68
2021/08/16 13:38:44;;;;;;;0.00;0.00;;;;;;;;;;5109348;28;20390;-70
2021/08/16 13:41:12;;;;;;;0.20;0.20;;;;;;;;;;5117932;28;20202;-67
2021/08/16 13:43:38;;;;;;;0.00;0.00;;;;;;;;;;5115748;28;20225;-67
2021/08/16 13:46:04;;;;;;;0.00;0.00;;;;;;;;;;5123347;28;20202;-66
2021/08/16 13:48:30;;;;;;;0.00;0.00;;;;;;;;;;5123494;28;20481;-68
2021/08/16 13:50:56;;;;;;;0.00;0.00;;;;;;;;;;5106781;28;20248;-68
2021/08/16 13:53:23;;;;;;;0.00;0.00;;;;;;;;;;5107164;28;20264;-67
2021/08/16 13:55:49;;;;;;;0.15;0.15;;;;;;;;;;5113972;28;20368;-68
2021/08/16 13:58:18;;;;;;;0.00;0.00;;;;;;;;;;5109563;28;20202;-68
2021/08/16 14:00:44;;;;;;;0.00;0.00;;;;;;;;;;5123259;28;20194;-67
2021/08/16 14:03:11;;;;;;;0.00;0.00;;;;;;;;;;5123301;28;20218;-69
2021/08/16 14:05:37;;;;;;;0.00;0.00;;;;;;;;;;5126866;28;20242;-67
2021/08/16 14:08:03;;;;;;;0.00;0.00;;;;;;;;;;5127257;28;20214;-67
2021/08/16 14:10:29;;;;;;;0.00;0.00;;;;;;;;;;5117087;28;20223;-67
2021/08/16 14:12:55;;;;;;;0.00;0.00;;;;;;;;;;5127183;28;20202;-67
2021/08/16 14:15:23;;;;;;;0.10;0.10;;;;;;;;;;5112949;28;20198;-69
2021/08/16 14:17:49;;;;;;;0.00;0.00;;;;;;;;;;5126823;28;20452;-68
2021/08/16 14:20:15;;;;;;;0.00;0.00;;;;;;;;;;5127031;27;20558;-68
2021/08/16 14:22:42;;;;;;;0.00;0.00;;;;;;;;;;5127338;27;20502;-68
2021/08/16 14:25:08;;;;;;;0.00;0.00;;;;;;;;;;5126734;28;20247;-68
2021/08/16 14:27:35;;;;;;;0.00;0.00;;;;;;;;;;5112870;28;20310;-68
2021/08/16 14:30:01;;;;;;;0.00;0.00;;;;;;;;;;5126957;28;20206;-68
2021/08/16 14:32:31;;;;;;;0.00;0.00;;;;;;;;;;5126985;28;20236;-68
2021/08/16 14:34:57;;;;;;;0.00;0.00;;;;;;;;;;5126812;28;20367;-67
2021/08/16 14:37:23;;;;;;;0.00;0.00;;;;;;;;;;5126822;28;20214;-67
2021/08/16 14:39:49;;;;;;;0.00;0.00;;;;;;;;;;5127178;28;20206;-67
2021/08/16 14:42:15;;;;;;;0.00;0.00;;;;;;;;;;5127303;28;20206;-66